Paterson, Washington
Current Conditions -  °F | °C
As of 6:53 PM on Monday 20 Oct 2014 (Local Time) from KHRI Reporting Station
Light Rain Light Rain  
Wind Chill: 55°   Ceiling: 7000
Heat Index: 55°   Visibility: 10mi
Dew Point: 52°   Wind: 5mph
Humidity: 89%   Direction: 210°SSW
Pressure: 29.84"   Gusts: NA
Location:  45.94°N, 119.6°W
Report Text: KHRI 210153Z AUTO 21004KT 10SM -RA OVC070 13/11 A2984 RMK AO2 SLP103 P0002 T01280111
Loading
Personal Weather Stations






























Interactive Weather Map
Tropical Storm Tracking
New forecast layout! Learn more

10-Day Weather Forecast

Advertisements
Track Severe Weather on mobile